ADDS METAR Data INFO
IDs: Format: Raw Decoded Include TAF

Data at: 0508 UTC 23 May 2017

KLBB 230453Z COR 04009KT 10SM SCT045 BKN260 17/14 A2999 RMK AO2 SLP118 T01720144 $
KLBB 230353Z 12011KT 10SM SCT065 SCT160 BKN250 18/15 A2999 RMK AO2 SLP116 FRQ LTGIC DSNT NE CB DSNT NE MOV SE T01830150 $
KLBB 230253Z 13009KT 10SM SCT150 SCT260 19/15 A2999 RMK AO2 SLP117 T01940150 53013 $
KLBB 230153Z COR 15007KT 10SM FEW050 SCT150 BKN260 21/15 A2998 RMK AO2 SLP114 CB DSNT NE-SE-W MOV E CB DSNT NW MOV SE T02110150 $
KLBB 230053Z 13010KT 10SM SCT140 SCT160 BKN260 23/13 A2994 RMK AO2 SLP101 CB DSNT NE-SE-SW-W AND NW MOV SE SHRA DSNT SW-W T02280133 $
KLBB 222353Z 05008KT 10SM SCT045 SCT130 SCT160 BKN260 24/12 A2995 RMK AO2 SLP103 CB DSNT E-SE AND S-SW-NW MOV SE SHRA DSNT W-NW T02440117 10267 20222 56012 $
KLBB 222253Z 35012KT 10SM SCT050 SCT100 BKN260 25/12 A2996 RMK AO2 SLP107 CB DSNT SE MOV E CB DSNT SW-W-NW MOV SE SHRA DSNT SE T02500122 $
KLBB 222153Z VRB04KT 10SM SCT049TCU BKN060 26/12 A2998 RMK AO2 SLP112 CB DSNT SE MOV E TCU ALQDS T02610122 $
KLBB 222053Z 25009KT 10SM SCT039TCU BKN065 BKN250 26/13 A2999 RMK AO2 SLP117 CB DSNT SE MOV E TCU ALQDS T02560128 56019
KLBB 221953Z COR 28004G14KT 10SM SCT038TCU BKN049 OVC060 24/13 A3001 RMK AO2 SLP123 CB DSNT SE MOV E TCU ALQDS T02440128
KLBB 221853Z 20009KT 9SM FEW037 BKN040 BKN055 23/13 A3003 RMK AO2 SLP131 MDT CU ALQDS T02330128
KLBB 221753Z 22008KT 9SM BKN034 OVC046 23/12 A3005 RMK AO2 SLP137 BINOVC 60000 T02330122 10233 20128 58017
KLBB 221653Z VRB03KT 9SM SCT031 SCT033 SCT100 SCT150 22/12 A3007 RMK AO2 SLP145 T02170117
KLBB 221553Z 18005KT 9SM SCT025 BKN030 BKN150 19/12 A3009 RMK AO2 SLP153 T01940122
KLBB 221529Z 00000KT 8SM SCT023 SCT029 SCT130 BKN160 19/12 A3010 RMK AO2 T01890117
KLBB 221507Z 03004KT 8SM BKN021 BKN043 BKN100 18/12 A3010 RMK AO2 T01830117
KLBB 221453Z VRB04KT 8SM SCT021 BKN043 BKN100 BKN140 18/12 A3010 RMK AO2 PK WND 16027/1354 RAB22E42 SLP158 SHRA DSNT SW AND W P0000 60000 T01830117 55009
KLBB 221353Z 16022KT 6SM HZ SCT065 BKN110 BKN160 BKN190 15/11 A3003 RMK AO2 PK WND 16032/1329 RAB16E41 SLP135 CB DSNT NE AND SW-W MOV E SLO P0000 T01500111 $
KLBB 221253Z 18006KT 8SM FEW013 FEW050 SCT150 BKN190 13/09 A3012 RMK AO2 SLP166 CB DSNT W MOV E SLO VIRGA NW-NE T01330094 $
KLBB 221153Z 00000KT 10SM SCT013 BKN050 BKN085 13/09 A3013 RMK AO2 WSHFT 1114 SLP170 VIRGA W-N T01280089 10156 20117 53008 $
KLBB 221134Z 29009KT 10SM SCT013 BKN047 OVC100 13/09 A3016 RMK AO2 WSHFT 1114 T01280094 $
KLBB 221053Z 20008KT 10SM FEW005 FEW130 BKN220 12/10 A3010 RMK AO2 SLP158 T01220100 $
KLBB 220953Z 19007KT 10SM FEW150 12/08 A3010 RMK AO2 SLP158 T01220083 $
KLBB 220853Z 15007KT 10SM SCT150 12/08 A3011 RMK AO2 SLP160 T01220083 58020 $
KLBB 220753Z 14007KT 10SM FEW070 FEW220 13/08 A3013 RMK AO2 SLP168 T01330083 $
KLBB 220653Z 13006KT 10SM FEW055 SCT150 14/08 A3016 RMK AO2 SLP177 T01390083 $
KLBB 220553Z 08004KT 10SM BKN046 BKN160 15/09 A3017 RMK AO2 SLP179 T01500089 10222 20144 402560100 53014 $
KLBB 220453Z COR 12008KT 10SM FEW080 SCT150 16/09 A3016 RMK AO2 SLP174 OCNL LTGIC DSNT NW-N CB DSNT NW-N MOV E T01560089 $
KLBB 220353Z COR 14009KT 10SM FEW090 SCT150 BKN250 17/09 A3014 RMK AO2 SLP168 FRQ LTGIC DSNT NW-N CB DSNT NW-N MOV SE T01670089 $
KLBB 220253Z 15012KT 10SM FEW090 SCT180 BKN260 BKN300 18/09 A3013 RMK AO2 SLP166 T01780089 53013 $
KLBB 220153Z 14014KT 10SM FEW100 FEW180 BKN250 BKN300 19/08 A3009 RMK AO2 SLP156 CB DSNT NW MOV SE T01890083 $
KLBB 220053Z 14020KT 10SM FEW100 FEW180 SCT250 BKN300 21/05 A3008 RMK AO2 PK WND 14027/0017 SLP154 BKN LYR THN T02060050 $
KLBB 212353Z 14019KT 10SM FEW100 FEW200 SCT250 SCT300 22/03 A3009 RMK AO2 PK WND 13029/2323 SLP157 T02220028 10256 20222 58008 $
KLBB 212253Z 13023G28KT 10SM FEW090 SCT200 BKN250 BKN300 23/02 A3010 RMK AO2 PK WND 12028/2248 SLP160 BKN300 LYR THN T02280022 $
KLBB 212153Z 16020KT 10SM FEW060 SCT090 BKN250 23/01 A3013 RMK AO2 PK WND 16027/2112 SLP167 MOD CU DSNT W T02330011 $
KLBB 212053Z 13016G24KT 10SM FEW060 FEW090 SCT200 BKN260 24/01 A3011 RMK AO2 PK WND 15027/2026 SLP163 MOD CU DSNT NW-N T02390011 56019 $
KLBB 211953Z 14016KT 10SM FEW085 SCT200 BKN260 24/02 A3013 RMK AO2 PK WND 16035/1923 SLP165 T02440017 $
KLBB 211853Z 14017G24KT 10SM FEW080 FEW150 SCT220 24/02 A3015 RMK AO2 PK WND 14026/1843 SLP171 MDT CU DSNT SW-W T02390022 $
KLBB 211753Z 15021G28KT 10SM FEW040 SCT180 SCT220 24/03 A3018 RMK AO2 PK WND 13028/1738 SLP182 TCU DSNT S T02440028 10244 20100 58008 $


Page loaded:  05:08 UTC  |   10:08 PM Pacific  |   11:08 PM Mountain  |   12:08 AM Central  |   01:08 AM Eastern

 

ADVISORIES

FORECASTS

FORECASTS

OBSERVATIONS

USER TOOLS

ABOUT US